createdAt,value
2022-12-31T00:02:10.647Z,14.25
2022-12-31T00:04:37.089Z,11.20
2022-12-31T00:07:03.415Z,15.13
2022-12-31T00:09:29.781Z,15.40
2022-12-31T00:11:56.121Z,16.40
2022-12-31T00:14:22.436Z,11.02
2022-12-31T00:16:48.849Z,11.68
2022-12-31T00:19:15.191Z,15.75
2022-12-31T00:21:43.275Z,13.43
2022-12-31T00:24:10.916Z,15.88
2022-12-31T00:26:37.362Z,14.75
2022-12-31T00:29:04.447Z,14.00
2022-12-31T00:31:35.266Z,11.00
2022-12-31T00:34:01.982Z,10.50
2022-12-31T00:36:29.655Z,11.30
2022-12-31T00:38:57.019Z,6.43
2022-12-31T00:41:24.277Z,17.70
2022-12-31T00:43:50.797Z,9.93
2022-12-31T00:46:17.732Z,11.82
2022-12-31T00:48:44.605Z,11.50
2022-12-31T00:51:11.870Z,7.80
2022-12-31T00:53:38.547Z,14.40
2022-12-31T00:56:10.290Z,11.63
2022-12-31T00:58:36.830Z,9.32
2022-12-31T01:01:14.718Z,16.73
2022-12-31T01:03:41.191Z,10.65
2022-12-31T01:06:07.657Z,18.52
2022-12-31T01:08:34.142Z,13.88
2022-12-31T01:11:19.271Z,10.52
2022-12-31T01:13:50.062Z,10.45
2022-12-31T01:16:17.635Z,18.23
2022-12-31T01:18:44.015Z,12.52
2022-12-31T01:21:11.406Z,15.18
2022-12-31T01:23:38.462Z,18.83
2022-12-31T01:26:06.587Z,9.57
2022-12-31T01:28:33.371Z,12.65
2022-12-31T01:31:02.844Z,11.32
2022-12-31T01:33:29.259Z,5.88
2022-12-31T01:35:55.617Z,11.43
2022-12-31T01:38:21.981Z,9.30
2022-12-31T01:40:48.317Z,6.63
2022-12-31T01:43:18.916Z,8.63
2022-12-31T01:45:49.940Z,7.38
2022-12-31T01:48:19.690Z,6.18
2022-12-31T01:50:46.447Z,9.82
2022-12-31T01:53:13.059Z,7.70
2022-12-31T01:55:52.684Z,8.55
2022-12-31T01:58:20.809Z,8.90
2022-12-31T02:00:47.565Z,11.98
2022-12-31T02:03:14.367Z,8.75
2022-12-31T02:05:59.386Z,3.63
2022-12-31T02:08:25.831Z,9.93
2022-12-31T02:10:52.233Z,5.45
2022-12-31T02:13:18.637Z,4.20
2022-12-31T02:15:57.372Z,15.05
2022-12-31T02:18:30.015Z,13.55
2022-12-31T02:20:56.341Z,9.93
2022-12-31T02:23:22.821Z,13.65
2022-12-31T02:25:55.443Z,10.93
2022-12-31T02:28:21.792Z,3.75
2022-12-31T02:30:50.929Z,4.47
2022-12-31T02:33:22.959Z,4.32
2022-12-31T02:36:00.348Z,2.90
2022-12-31T02:38:32.560Z,1.50
2022-12-31T02:40:59.433Z,8.60
2022-12-31T02:43:26.032Z,1.88
2022-12-31T02:46:04.255Z,4.63
2022-12-31T02:48:36.529Z,2.95
2022-12-31T02:51:10.019Z,2.50
2022-12-31T02:53:52.761Z,3.35
2022-12-31T02:56:40.428Z,2.45
2022-12-31T03:02:13.552Z,1.30
2022-12-31T03:04:45.305Z,3.83
2022-12-31T03:07:13.684Z,3.42
2022-12-31T03:09:40.375Z,3.00
2022-12-31T03:12:26.475Z,1.65
2022-12-31T03:14:52.807Z,2.85
2022-12-31T03:17:19.195Z,5.40
2022-12-31T03:20:03.984Z,4.88
2022-12-31T03:22:30.563Z,3.60
2022-12-31T03:25:26.316Z,2.42
2022-12-31T03:27:52.655Z,2.47
2022-12-31T03:30:19.639Z,4.97
2022-12-31T03:32:46.863Z,3.30
2022-12-31T03:35:14.015Z,4.50
2022-12-31T03:37:40.795Z,2.95
2022-12-31T03:40:08.363Z,2.95
2022-12-31T03:42:34.701Z,4.13
2022-12-31T03:45:01.177Z,3.10
2022-12-31T03:47:27.597Z,5.28
2022-12-31T03:49:53.945Z,8.35
2022-12-31T03:52:20.312Z,8.13
2022-12-31T03:54:46.683Z,10.63
2022-12-31T03:57:13.231Z,7.78
2022-12-31T03:59:39.631Z,9.30
2022-12-31T04:02:06.096Z,8.75
2022-12-31T04:04:32.658Z,13.00
2022-12-31T04:06:59.041Z,11.32
2022-12-31T04:09:25.382Z,12.02
2022-12-31T04:11:51.810Z,10.38
2022-12-31T04:14:18.786Z,10.88
2022-12-31T04:16:45.642Z,10.70
2022-12-31T04:19:12.660Z,19.92
2022-12-31T04:21:39.076Z,14.67
2022-12-31T04:24:05.757Z,16.15
2022-12-31T04:26:32.112Z,16.67
2022-12-31T04:28:58.441Z,14.38
2022-12-31T04:31:24.812Z,16.38
2022-12-31T04:33:51.180Z,16.20
2022-12-31T04:36:17.523Z,13.50
2022-12-31T04:38:43.954Z,11.68
2022-12-31T04:41:19.735Z,17.65
2022-12-31T04:43:48.079Z,16.65
2022-12-31T04:46:14.975Z,13.45
2022-12-31T04:48:41.390Z,13.93
2022-12-31T04:51:07.781Z,16.60
2022-12-31T04:53:34.162Z,16.30
2022-12-31T04:56:00.785Z,21.70
2022-12-31T04:58:27.231Z,17.65
2022-12-31T05:00:55.264Z,15.68
2022-12-31T05:03:22.825Z,18.25
2022-12-31T05:05:50.085Z,14.50
2022-12-31T05:08:16.995Z,15.05
2022-12-31T05:10:44.397Z,16.10
2022-12-31T05:13:10.959Z,13.50
2022-12-31T05:15:37.337Z,14.93
2022-12-31T05:18:04.001Z,16.65
2022-12-31T05:20:30.376Z,13.13
2022-12-31T05:22:56.728Z,12.52
2022-12-31T05:25:23.078Z,14.52
2022-12-31T05:27:49.476Z,14.07
2022-12-31T05:30:18.015Z,12.35
2022-12-31T05:32:44.701Z,13.20
2022-12-31T05:35:11.215Z,16.65
2022-12-31T05:37:37.699Z,13.40
2022-12-31T05:40:04.499Z,14.23
2022-12-31T05:42:30.825Z,21.65
2022-12-31T05:44:57.229Z,17.92
2022-12-31T05:47:23.627Z,17.63
2022-12-31T05:49:49.958Z,19.27
2022-12-31T05:52:16.586Z,22.63
2022-12-31T05:54:43.147Z,19.50
2022-12-31T05:57:09.565Z,18.17
2022-12-31T05:59:35.987Z,26.67
2022-12-31T06:02:02.324Z,28.83
2022-12-31T06:04:28.663Z,21.42
2022-12-31T06:06:55.087Z,26.00
2022-12-31T06:09:21.532Z,24.38
2022-12-31T06:11:48.074Z,18.67
2022-12-31T06:14:14.554Z,25.52
2022-12-31T06:16:41.454Z,26.05
2022-12-31T06:19:08.222Z,23.23
2022-12-31T06:21:34.583Z,22.77
2022-12-31T06:24:01.082Z,25.65
2022-12-31T06:26:27.625Z,23.10
2022-12-31T06:28:54.237Z,21.65
2022-12-31T06:31:20.682Z,29.58
2022-12-31T06:33:47.141Z,22.15
2022-12-31T06:36:14.591Z,24.92
2022-12-31T06:38:41.539Z,27.45
2022-12-31T06:41:10.276Z,22.60
2022-12-31T06:43:37.239Z,27.17
2022-12-31T06:46:07.557Z,21.03
2022-12-31T06:48:34.190Z,21.95
2022-12-31T06:51:05.342Z,18.40
2022-12-31T06:53:31.899Z,19.95
2022-12-31T06:55:58.416Z,22.25
2022-12-31T06:58:24.916Z,17.08
2022-12-31T07:01:00.127Z,16.50
2022-12-31T07:03:49.766Z,16.17
2022-12-31T07:06:33.401Z,17.25
2022-12-31T07:09:08.675Z,21.65
2022-12-31T07:11:44.662Z,20.00
2022-12-31T07:14:25.807Z,20.50
2022-12-31T07:17:12.408Z,19.88
2022-12-31T07:19:58.061Z,19.00
2022-12-31T07:22:24.694Z,10.90
2022-12-31T07:24:51.163Z,14.85
2022-12-31T07:27:17.503Z,14.45
2022-12-31T07:29:55.982Z,17.92
2022-12-31T07:32:25.376Z,12.77
2022-12-31T07:34:57.760Z,16.33
2022-12-31T07:37:33.201Z,15.77
2022-12-31T07:40:14.584Z,14.00
2022-12-31T07:43:01.207Z,13.38
2022-12-31T07:45:33.334Z,14.03
2022-12-31T07:48:02.749Z,23.27
2022-12-31T07:50:29.661Z,14.57
2022-12-31T07:52:56.241Z,15.00
2022-12-31T07:55:22.602Z,16.75
2022-12-31T07:57:55.504Z,16.65
2022-12-31T08:00:22.028Z,17.48
2022-12-31T08:03:07.150Z,22.00
2022-12-31T08:05:44.079Z,17.08
2022-12-31T08:08:23.633Z,22.38
2022-12-31T08:10:49.946Z,26.17
2022-12-31T08:13:17.104Z,19.40
2022-12-31T08:15:43.647Z,23.88
2022-12-31T08:18:10.376Z,24.83
2022-12-31T08:20:44.253Z,29.02
2022-12-31T08:23:19.851Z,32.35
2022-12-31T08:25:46.162Z,32.67
2022-12-31T08:28:21.575Z,34.95
2022-12-31T08:30:58.175Z,40.70
2022-12-31T08:33:45.179Z,35.35
2022-12-31T08:36:18.210Z,34.90
2022-12-31T08:38:53.574Z,33.97
2022-12-31T08:41:22.968Z,37.67
2022-12-31T08:44:08.097Z,40.20
2022-12-31T08:46:38.506Z,37.33
2022-12-31T08:49:04.965Z,43.10
2022-12-31T08:51:31.423Z,34.45
2022-12-31T08:53:57.944Z,33.42
2022-12-31T08:56:24.265Z,31.50
2022-12-31T08:59:00.128Z,34.65
2022-12-31T09:01:28.236Z,32.63
2022-12-31T09:04:05.760Z,33.05
2022-12-31T09:06:34.628Z,24.63
2022-12-31T09:09:38.278Z,32.80
2022-12-31T09:12:13.098Z,30.23
2022-12-31T09:14:47.538Z,24.83
2022-12-31T09:17:38.194Z,28.42
2022-12-31T09:20:04.955Z,23.33
2022-12-31T09:22:31.450Z,21.58
2022-12-31T09:24:57.964Z,24.63
2022-12-31T09:27:30.624Z,26.83
2022-12-31T09:30:04.005Z,24.63
2022-12-31T09:32:35.971Z,24.38
2022-12-31T09:35:21.271Z,26.65
2022-12-31T09:37:49.053Z,24.42
2022-12-31T09:40:34.383Z,23.27
2022-12-31T09:43:12.762Z,29.63
2022-12-31T09:45:42.105Z,25.55
2022-12-31T09:48:08.478Z,28.63
2022-12-31T09:50:45.331Z,26.83
2022-12-31T09:53:18.947Z,25.10
2022-12-31T09:55:48.486Z,26.05
2022-12-31T09:58:14.802Z,21.33
2022-12-31T10:00:41.112Z,20.27
2022-12-31T10:03:16.964Z,24.00
2022-12-31T10:06:02.100Z,22.00
2022-12-31T10:08:47.885Z,21.05
2022-12-31T10:11:25.087Z,21.60
2022-12-31T10:13:51.405Z,24.30
2022-12-31T10:16:24.918Z,18.45
2022-12-31T10:19:16.159Z,21.02
2022-12-31T10:21:57.797Z,20.13
2022-12-31T10:24:30.369Z,19.73
2022-12-31T10:27:16.834Z,18.38
2022-12-31T10:29:56.877Z,23.45
2022-12-31T10:32:32.191Z,21.92
2022-12-31T10:35:12.888Z,20.48
2022-12-31T10:37:44.389Z,20.48
2022-12-31T10:40:10.748Z,26.05
2022-12-31T10:42:52.595Z,21.67
2022-12-31T10:45:18.917Z,24.52
2022-12-31T10:48:03.913Z,29.25
2022-12-31T10:50:49.036Z,24.52
2022-12-31T10:53:24.450Z,20.90
2022-12-31T10:56:09.742Z,27.02
2022-12-31T10:58:42.269Z,29.52
2022-12-31T11:01:17.871Z,28.17
2022-12-31T11:04:02.657Z,30.20
2022-12-31T11:06:32.191Z,23.40
2022-12-31T11:09:07.655Z,33.88
2022-12-31T11:11:53.830Z,27.83
2022-12-31T11:14:38.622Z,28.25
2022-12-31T11:17:04.921Z,24.52
2022-12-31T11:19:39.477Z,25.73
2022-12-31T11:22:31.215Z,23.55
2022-12-31T11:25:17.403Z,33.22
2022-12-31T11:28:02.362Z,16.70
2022-12-31T11:30:31.768Z,20.38
2022-12-31T11:33:16.461Z,25.60
2022-12-31T11:36:01.738Z,29.33
2022-12-31T11:38:51.582Z,28.33
2022-12-31T11:41:42.621Z,33.72
2022-12-31T11:44:17.918Z,28.05
2022-12-31T11:46:53.780Z,28.05
2022-12-31T11:49:44.344Z,27.40
2022-12-31T11:52:21.521Z,27.23
2022-12-31T11:55:07.068Z,23.38
2022-12-31T11:57:35.014Z,21.90
2022-12-31T12:00:20.769Z,23.35
2022-12-31T12:02:49.172Z,24.83
2022-12-31T12:05:17.456Z,23.73
2022-12-31T12:07:43.938Z,15.35
2022-12-31T12:10:23.493Z,15.27
2022-12-31T12:12:50.324Z,9.05
2022-12-31T12:15:32.847Z,24.88
2022-12-31T12:18:01.596Z,27.42
2022-12-31T12:20:30.430Z,38.75
2022-12-31T12:22:57.850Z,25.15
2022-12-31T12:25:25.842Z,12.25
2022-12-31T12:27:52.770Z,22.00
2022-12-31T12:30:21.644Z,9.32
2022-12-31T12:32:58.597Z,24.45
2022-12-31T12:35:29.806Z,111.50
2022-12-31T12:38:00.718Z,26.67
2022-12-31T12:40:33.639Z,11.93
2022-12-31T12:43:01.500Z,21.77
2022-12-31T12:45:30.173Z,5.72
2022-12-31T12:47:59.061Z,19.50
2022-12-31T12:50:32.365Z,20.48
2022-12-31T12:53:01.750Z,5.43
2022-12-31T12:55:28.123Z,7.50
2022-12-31T12:57:54.446Z,8.32
2022-12-31T13:00:21.030Z,7.57
2022-12-31T13:02:56.323Z,10.93
2022-12-31T13:05:41.269Z,7.03
2022-12-31T13:08:10.377Z,3.00
2022-12-31T13:10:39.724Z,4.22
2022-12-31T13:13:23.257Z,3.03
2022-12-31T13:15:55.923Z,14.48
2022-12-31T13:18:36.202Z,14.05
2022-12-31T13:21:02.535Z,2.85
2022-12-31T13:23:40.131Z,3.40
2022-12-31T13:26:06.487Z,2.42
2022-12-31T13:28:34.198Z,3.50
2022-12-31T13:31:10.330Z,1.75
2022-12-31T13:33:38.386Z,1.55
2022-12-31T13:36:07.445Z,3.65
2022-12-31T13:38:36.620Z,5.43
2022-12-31T13:41:12.246Z,1.75
2022-12-31T13:43:58.022Z,2.17
2022-12-31T13:46:30.024Z,2.65
2022-12-31T13:48:58.318Z,3.63
2022-12-31T13:51:28.106Z,12.38
2022-12-31T13:54:01.851Z,14.10
2022-12-31T13:56:31.351Z,7.18
2022-12-31T13:59:12.223Z,4.78
2022-12-31T14:01:38.617Z,3.63
2022-12-31T14:04:13.637Z,5.68
2022-12-31T14:06:50.392Z,4.97
2022-12-31T14:09:20.448Z,7.35
2022-12-31T14:11:59.124Z,16.45
2022-12-31T14:14:42.014Z,7.00
2022-12-31T14:17:26.998Z,9.85
2022-12-31T14:20:15.099Z,10.90
2022-12-31T14:22:47.614Z,10.90
2022-12-31T14:25:40.290Z,14.18
2022-12-31T14:28:08.008Z,12.10
2022-12-31T14:30:36.455Z,10.38
2022-12-31T14:33:08.669Z,8.88
2022-12-31T14:35:38.712Z,12.95
2022-12-31T14:38:05.013Z,13.20
2022-12-31T14:40:31.340Z,14.60
2022-12-31T14:43:16.284Z,15.30
2022-12-31T14:46:01.091Z,19.23
2022-12-31T14:48:42.896Z,28.05
2022-12-31T14:51:09.615Z,109.15
2022-12-31T14:53:36.057Z,28.80
2022-12-31T14:56:04.002Z,12.18
2022-12-31T14:58:30.387Z,10.68
2022-12-31T15:01:08.897Z,10.90
2022-12-31T15:03:44.980Z,8.95
2022-12-31T15:06:26.663Z,12.30
2022-12-31T15:09:07.469Z,10.23
2022-12-31T15:11:53.302Z,12.10
2022-12-31T15:14:25.739Z,18.88
2022-12-31T15:16:55.175Z,16.38
2022-12-31T15:19:40.008Z,22.25
2022-12-31T15:22:17.532Z,22.45
2022-12-31T15:24:45.573Z,18.48
2022-12-31T15:27:38.086Z,29.05
2022-12-31T15:30:05.734Z,46.08
2022-12-31T15:32:36.884Z,24.40
2022-12-31T15:35:23.166Z,55.45
2022-12-31T15:38:08.223Z,23.25
2022-12-31T15:40:42.538Z,16.10
2022-12-31T15:43:19.841Z,30.77
2022-12-31T15:45:48.188Z,32.47
2022-12-31T15:48:14.640Z,64.85
2022-12-31T15:50:41.879Z,34.50
2022-12-31T15:53:08.551Z,14.95
2022-12-31T15:55:37.826Z,11.32
2022-12-31T15:58:05.663Z,12.93
2022-12-31T16:02:58.377Z,8.63
2022-12-31T16:05:26.397Z,12.85
2022-12-31T16:07:56.332Z,17.23
2022-12-31T16:10:25.071Z,15.98
2022-12-31T16:12:52.479Z,16.75
2022-12-31T16:15:29.206Z,12.35
2022-12-31T16:18:00.407Z,16.88
2022-12-31T16:20:30.106Z,5.90
2022-12-31T16:23:01.636Z,11.65
2022-12-31T16:25:31.561Z,8.60
2022-12-31T16:28:01.137Z,5.03
2022-12-31T16:32:55.583Z,5.75
2022-12-31T16:35:26.197Z,9.18
2022-12-31T16:38:01.653Z,9.98
2022-12-31T16:40:28.375Z,10.75
2022-12-31T16:42:54.711Z,11.85
2022-12-31T16:45:29.881Z,19.55
2022-12-31T16:47:56.424Z,9.02
2022-12-31T16:50:24.239Z,15.18
2022-12-31T16:52:55.866Z,23.73
2022-12-31T16:55:23.601Z,15.13
2022-12-31T16:57:55.670Z,23.25
2022-12-31T17:00:23.745Z,22.27
2022-12-31T17:03:09.013Z,27.20
2022-12-31T17:05:53.844Z,24.27
2022-12-31T17:08:24.931Z,25.67
2022-12-31T17:10:51.316Z,24.00
2022-12-31T17:13:30.109Z,43.47
2022-12-31T17:15:57.814Z,32.95
2022-12-31T17:18:25.784Z,24.80
2022-12-31T17:23:28.780Z,14.63
2022-12-31T17:25:59.861Z,23.38
2022-12-31T17:28:26.785Z,21.77
2022-12-31T17:31:13.172Z,19.17
2022-12-31T17:33:39.704Z,21.88
2022-12-31T17:36:21.292Z,24.85
2022-12-31T17:38:47.734Z,18.23
2022-12-31T17:41:25.210Z,23.42
2022-12-31T17:43:53.478Z,29.98
2022-12-31T17:46:20.168Z,26.75
2022-12-31T17:48:50.139Z,20.83
2022-12-31T17:51:16.463Z,16.45
2022-12-31T17:53:50.694Z,16.23
2022-12-31T17:56:18.584Z,15.57
2022-12-31T18:01:13.785Z,17.42
2022-12-31T18:03:40.176Z,12.57
2022-12-31T18:06:09.161Z,12.18
2022-12-31T18:08:39.410Z,9.30
2022-12-31T18:11:06.426Z,11.15
2022-12-31T18:13:32.903Z,12.77
2022-12-31T18:15:59.354Z,9.15
2022-12-31T18:18:27.010Z,10.50
2022-12-31T18:21:13.606Z,9.55
2022-12-31T18:23:46.758Z,9.03
2022-12-31T18:26:14.500Z,6.25
2022-12-31T18:28:40.863Z,7.10
2022-12-31T18:31:07.571Z,5.30
2022-12-31T18:33:33.977Z,5.65
2022-12-31T18:36:09.707Z,5.05
2022-12-31T18:38:36.834Z,6.60
2022-12-31T18:41:03.862Z,6.35
2022-12-31T18:43:30.295Z,8.23
2022-12-31T18:45:56.889Z,6.63
2022-12-31T18:48:23.293Z,4.10
2022-12-31T18:50:50.391Z,4.38
2022-12-31T18:53:20.971Z,4.80
2022-12-31T18:55:54.576Z,3.70
2022-12-31T18:58:21.311Z,3.92
2022-12-31T19:00:48.521Z,4.15
2022-12-31T19:03:19.270Z,3.75
2022-12-31T19:05:49.059Z,2.72
2022-12-31T19:08:16.086Z,3.08
2022-12-31T19:10:42.413Z,2.83
2022-12-31T19:13:16.160Z,2.40
2022-12-31T19:15:46.825Z,3.33
2022-12-31T19:18:13.201Z,3.45
2022-12-31T19:20:41.018Z,3.30
2022-12-31T19:23:18.037Z,2.08
2022-12-31T19:25:45.406Z,2.90
2022-12-31T19:28:15.970Z,3.63
2022-12-31T19:30:42.532Z,4.03
2022-12-31T19:33:08.953Z,2.40
2022-12-31T19:35:35.333Z,2.80
2022-12-31T19:38:01.749Z,3.53
2022-12-31T19:40:30.448Z,2.03
2022-12-31T19:42:57.103Z,2.78
2022-12-31T19:45:24.911Z,2.33
2022-12-31T19:47:52.048Z,1.80
2022-12-31T19:50:20.354Z,1.83
2022-12-31T19:52:47.939Z,2.45
2022-12-31T19:55:15.721Z,2.83
2022-12-31T19:57:42.407Z,2.30
2022-12-31T20:00:10.834Z,1.70
2022-12-31T20:02:37.569Z,1.98
2022-12-31T20:05:04.176Z,1.10
2022-12-31T20:07:30.530Z,2.80
2022-12-31T20:09:56.875Z,3.45
2022-12-31T20:12:23.208Z,2.78
2022-12-31T20:14:49.620Z,8.65
2022-12-31T20:17:16.145Z,9.18
2022-12-31T20:19:42.608Z,7.75
2022-12-31T20:22:08.974Z,6.90
2022-12-31T20:24:35.291Z,8.88
2022-12-31T20:27:01.874Z,10.27
2022-12-31T20:29:28.313Z,8.43
2022-12-31T20:31:54.699Z,8.25
2022-12-31T20:34:21.067Z,5.25
2022-12-31T20:36:47.605Z,2.97
2022-12-31T20:39:14.118Z,3.33
2022-12-31T20:41:40.497Z,4.15
2022-12-31T20:44:06.982Z,3.20
2022-12-31T20:46:33.487Z,3.08
2022-12-31T20:49:01.113Z,2.67
2022-12-31T20:51:28.219Z,1.83
2022-12-31T20:53:56.329Z,3.70
2022-12-31T20:56:23.265Z,3.78
2022-12-31T20:58:49.734Z,6.22
2022-12-31T21:01:16.857Z,9.70
2022-12-31T21:06:30.537Z,28.70
2022-12-31T21:08:57.803Z,36.42
2022-12-31T21:11:43.209Z,28.60
2022-12-31T21:14:09.577Z,24.13
2022-12-31T21:16:36.242Z,15.70
2022-12-31T21:19:02.815Z,12.45
2022-12-31T21:21:29.208Z,10.43
2022-12-31T21:23:55.654Z,9.48
2022-12-31T21:26:22.167Z,7.70
2022-12-31T21:28:48.500Z,8.63
2022-12-31T21:31:15.240Z,12.57
2022-12-31T21:33:47.655Z,18.05
2022-12-31T21:36:14.253Z,9.27
2022-12-31T21:38:40.681Z,10.52
2022-12-31T21:41:08.204Z,8.90
2022-12-31T21:43:34.926Z,11.85
2022-12-31T21:46:05.725Z,5.55
2022-12-31T21:48:32.333Z,13.32
2022-12-31T21:51:09.234Z,12.52
2022-12-31T21:53:37.087Z,12.33
2022-12-31T21:56:16.027Z,12.82
2022-12-31T21:58:46.574Z,13.02
2022-12-31T22:01:35.352Z,14.45
2022-12-31T22:04:01.828Z,15.05
2022-12-31T22:06:28.238Z,10.85
2022-12-31T22:08:55.817Z,12.93
2022-12-31T22:11:23.723Z,12.63
2022-12-31T22:16:17.217Z,15.50
2022-12-31T22:18:44.155Z,9.73
2022-12-31T22:21:17.830Z,10.07
2022-12-31T22:23:45.410Z,9.77
2022-12-31T22:26:12.641Z,11.73
2022-12-31T22:28:40.282Z,13.93
2022-12-31T22:33:33.139Z,14.10
2022-12-31T22:36:00.911Z,10.10
2022-12-31T22:38:28.137Z,5.65
2022-12-31T22:41:20.954Z,8.63
2022-12-31T22:43:48.456Z,10.30
2022-12-31T22:46:19.411Z,11.90
2022-12-31T22:48:45.835Z,9.25
2022-12-31T22:51:13.354Z,9.05
2022-12-31T22:53:41.128Z,11.60
2022-12-31T22:56:07.967Z,8.20
2022-12-31T22:58:34.756Z,8.70
2022-12-31T23:01:03.615Z,10.43
2022-12-31T23:03:30.012Z,12.93
2022-12-31T23:05:56.490Z,11.18
2022-12-31T23:08:24.073Z,8.88
2022-12-31T23:11:01.155Z,10.63
2022-12-31T23:13:50.657Z,13.40
2022-12-31T23:16:35.890Z,7.72
2022-12-31T23:19:20.740Z,11.88
2022-12-31T23:22:05.479Z,7.97
2022-12-31T23:24:31.809Z,10.07
2022-12-31T23:26:58.259Z,11.10
2022-12-31T23:29:25.271Z,10.32
2022-12-31T23:31:52.199Z,12.03
2022-12-31T23:34:18.771Z,9.10
2022-12-31T23:36:45.156Z,11.32
2022-12-31T23:39:11.887Z,10.52
2022-12-31T23:41:38.207Z,12.98
2022-12-31T23:44:04.905Z,16.55
2022-12-31T23:46:31.395Z,9.57
2022-12-31T23:48:57.780Z,19.77
2022-12-31T23:51:24.183Z,15.40
2022-12-31T23:53:51.534Z,15.45
2022-12-31T23:56:23.342Z,11.20
2022-12-31T23:58:55.029Z,19.60
